Terminal Aerodrome Forecast
Issued by NWS

Home | Current Version | Previous Version | Text Only | Print | Product List | Glossary On
Versions: 1 2 3 4 5 6 7 8 9 10 11 12 13 14
375
FTUS46 KSEW 071120
TAFBFI
TAF
KBFI 071120Z 0712/0812 VRB03KT P6SM SCT100
     FM071500 13004KT P6SM SCT035 BKN060
     FM071900 VRB03KT P6SM VCSH BKN035 OVC050
     FM072300 35003KT P6SM SCT050 BKN090
     FM080300 VRB03KT P6SM SCT050 SCT200=

USA.gov is the U.S. government's official web portal to all federal, state and local government web resources and services.